Time;durP1;ratioP1;P1;durP2;ratioP2;P2;SDS_P1;SDS_P2;PMS_P1;PMS_P2;Temp;Humidity;BMP_temperature;BMP_pressure;BME280_temperature;BME280_humidity;BME280_pressure;Samples;Min_cycle;Max_cycle;Signal;HPM_P1;HPM_P2
2022/06/14 00:00:54;;;;;;;9.55;2.95;;;8.90;99.90;;;;;;5052868;28;20467;-80
2022/06/14 00:03:27;;;;;;;10.88;3.30;;;8.90;99.90;;;;;;5053211;28;20049;-80
2022/06/14 00:05:54;;;;;;;12.35;3.33;;;8.90;99.90;;;;;;5059963;28;20055;-80
2022/06/14 00:08:21;;;;;;;8.23;3.25;;;9.00;99.90;;;;;;5056433;28;20109;-80
2022/06/14 00:10:48;;;;;;;14.55;3.45;;;8.90;99.90;;;;;;5071963;28;20048;-80
2022/06/14 00:13:15;;;;;;;10.93;3.33;;;8.90;99.90;;;;;;5052162;28;20063;-80
2022/06/14 00:15:42;;;;;;;10.63;3.25;;;8.90;99.90;;;;;;5051767;28;20049;-80
2022/06/14 00:18:08;;;;;;;14.20;4.03;;;8.80;99.90;;;;;;5066472;28;20464;-80
2022/06/14 00:20:34;;;;;;;11.60;3.78;;;8.70;99.90;;;;;;5071948;28;20127;-80
2022/06/14 00:22:59;;;;;;;17.55;3.72;;;8.70;99.90;;;;;;5058268;28;20048;-80
2022/06/14 00:25:33;;;;;;;12.68;3.83;;;8.60;99.90;;;;;;5052626;28;20482;-79
2022/06/14 00:28:01;;;;;;;14.43;4.00;;;8.60;99.90;;;;;;5068626;28;20505;-80
2022/06/14 00:30:28;;;;;;;9.75;3.90;;;8.60;99.90;;;;;;5068314;28;20128;-80
2022/06/14 00:32:53;;;;;;;10.70;4.03;;;8.50;99.90;;;;;;5072724;28;20059;-80
2022/06/14 00:35:19;;;;;;;16.48;5.07;;;8.50;99.90;;;;;;5071650;28;20040;-80
2022/06/14 00:37:45;;;;;;;17.02;4.22;;;8.50;99.90;;;;;;5070690;28;20054;-79
2022/06/14 00:40:15;;;;;;;15.30;4.80;;;8.50;99.90;;;;;;5069441;28;20056;-81
2022/06/14 00:42:41;;;;;;;17.08;4.65;;;8.50;99.90;;;;;;5054322;28;20045;-81
2022/06/14 00:45:09;;;;;;;15.10;4.50;;;8.40;99.90;;;;;;5058517;28;20059;-84
2022/06/14 00:47:44;;;;;;;15.13;4.95;;;8.40;99.90;;;;;;5071508;28;20048;-80
2022/06/14 00:50:21;;;;;;;15.10;4.35;;;8.40;99.90;;;;;;5054822;28;20048;-80
2022/06/14 00:52:56;;;;;;;16.80;4.00;;;8.40;99.90;;;;;;5071381;28;20090;-80
2022/06/14 00:55:33;;;;;;;16.25;4.05;;;8.40;99.90;;;;;;5057970;28;20044;-80
2022/06/14 00:58:26;;;;;;;13.65;4.72;;;8.40;99.90;;;;;;5051169;28;20049;-80
2022/06/14 01:01:01;;;;;;;15.25;4.30;;;8.30;99.90;;;;;;5058505;28;20056;-80
2022/06/14 01:03:39;;;;;;;17.15;4.00;;;8.30;99.90;;;;;;5071054;28;20508;-80
2022/06/14 01:06:11;;;;;;;14.13;4.35;;;8.30;99.90;;;;;;5053520;28;20091;-80
2022/06/14 01:08:48;;;;;;;18.05;3.95;;;8.30;99.90;;;;;;5053283;28;20136;-80
2022/06/14 01:11:22;;;;;;;14.50;4.10;;;8.30;99.90;;;;;;5072918;28;20055;-80
2022/06/14 01:13:48;;;;;;;18.05;5.30;;;8.30;99.90;;;;;;5075158;28;20102;-80
2022/06/14 01:16:15;;;;;;;10.98;4.18;;;8.20;99.90;;;;;;5071586;28;20049;-80
2022/06/14 01:18:41;;;;;;;13.75;4.50;;;8.20;99.90;;;;;;5074329;28;20072;-80
2022/06/14 01:21:06;;;;;;;14.23;4.40;;;8.40;99.90;;;;;;5053029;28;20494;-80
2022/06/14 01:23:33;;;;;;;13.00;4.20;;;8.20;99.90;;;;;;5055349;28;20053;-80
2022/06/14 01:26:22;;;;;;;13.25;4.53;;;8.20;99.90;;;;;;5055044;28;20055;-83
2022/06/14 01:28:52;;;;;;;19.92;4.95;;;8.20;99.90;;;;;;5050769;28;20041;-81
2022/06/14 01:31:20;;;;;;;16.20;5.22;;;8.30;99.90;;;;;;5075454;28;20075;-80
2022/06/14 01:33:48;;;;;;;19.45;5.22;;;8.20;99.90;;;;;;5059174;28;20047;-80
2022/06/14 01:36:36;;;;;;;16.52;5.97;;;8.20;99.90;;;;;;5054978;28;20088;-80
2022/06/14 01:39:05;;;;;;;18.38;5.57;;;8.20;99.90;;;;;;5055749;28;20041;-80
2022/06/14 01:41:30;;;;;;;14.55;5.72;;;8.20;99.90;;;;;;5063736;28;20056;-80
2022/06/14 01:44:40;;;;;;;15.27;6.30;;;8.20;99.90;;;;;;5054668;28;20045;-80
2022/06/14 01:47:32;;;;;;;21.90;6.78;;;8.20;99.90;;;;;;5054726;28;20132;-82
2022/06/14 01:53:11;;;;;;;21.65;6.45;;;8.10;99.90;;;;;;5058364;28;20056;-80
2022/06/14 01:55:55;;;;;;;19.92;6.55;;;8.10;99.90;;;;;;5056520;28;20052;-81
2022/06/14 01:58:37;;;;;;;21.58;7.70;;;8.10;99.90;;;;;;5073830;28;20529;-80
2022/06/14 02:01:02;;;;;;;24.50;8.57;;;8.10;99.90;;;;;;5073354;28;20410;-80
2022/06/14 02:06:42;;;;;;;21.65;7.38;;;8.20;99.90;;;;;;5075921;28;20072;-80
2022/06/14 02:09:15;;;;;;;23.45;8.60;;;8.20;99.90;;;;;;5076420;28;20131;-80
2022/06/14 02:11:41;;;;;;;24.67;7.68;;;8.20;99.90;;;;;;5092922;28;20075;-80
2022/06/14 02:14:59;;;;;;;17.58;7.63;;;8.10;99.90;;;;;;5091555;28;20088;-80
2022/06/14 02:17:36;;;;;;;17.00;7.72;;;8.20;99.90;;;;;;4938521;29;20153;-80
2022/06/14 02:20:06;;;;;;;19.92;7.57;;;8.20;99.90;;;;;;4954180;29;20059;-79
2022/06/14 02:22:55;;;;;;;23.27;8.03;;;8.20;99.90;;;;;;4938590;29;20527;-83
2022/06/14 02:25:27;;;;;;;19.33;7.75;;;8.20;99.90;;;;;;4954598;29;20102;-80
2022/06/14 02:28:07;;;;;;;20.67;7.78;;;8.20;99.90;;;;;;4938529;29;20400;-80
2022/06/14 02:30:45;;;;;;;19.40;7.93;;;8.20;99.90;;;;;;4921718;29;20067;-79
2022/06/14 02:33:19;;;;;;;16.70;7.22;;;8.20;99.90;;;;;;4925555;29;20058;-80
2022/06/14 02:35:45;;;;;;;19.52;8.30;;;8.20;99.90;;;;;;4918918;29;20103;-80
2022/06/14 02:38:21;;;;;;;20.60;7.53;;;8.20;99.90;;;;;;4919293;29;20047;-80
2022/06/14 02:41:06;;;;;;;12.00;6.80;;;8.20;99.90;;;;;;4933213;29;20070;-80
2022/06/14 02:43:40;;;;;;;15.82;6.47;;;8.20;99.90;;;;;;4899236;29;20138;-80
2022/06/14 02:46:12;;;;;;;19.92;7.22;;;8.20;99.90;;;;;;4921323;29;20080;-80
2022/06/14 02:49:13;;;;;;;12.90;6.28;;;8.10;99.90;;;;;;4916026;29;20056;-81
2022/06/14 02:51:46;;;;;;;12.63;6.47;;;8.10;99.90;;;;;;4937126;28;20078;-80
2022/06/14 02:54:28;;;;;;;19.60;7.30;;;8.10;99.90;;;;;;5003767;28;20394;-80
2022/06/14 02:57:00;;;;;;;18.55;7.22;;;8.10;99.90;;;;;;5053442;28;20124;-80
2022/06/14 02:59:35;;;;;;;17.55;7.18;;;8.10;99.90;;;;;;5053896;28;20049;-80
2022/06/14 03:02:10;;;;;;;20.95;7.50;;;8.10;99.90;;;;;;5054466;28;20049;-80
2022/06/14 03:04:42;;;;;;;19.02;7.70;;;8.10;99.90;;;;;;5036714;28;20041;-80
2022/06/14 03:07:13;;;;;;;16.42;7.82;;;8.10;99.90;;;;;;5062852;28;20398;-80
2022/06/14 03:09:41;;;;;;;18.58;7.13;;;8.10;99.90;;;;;;5072902;28;20041;-81
2022/06/14 03:12:57;;;;;;;17.10;7.25;;;8.20;99.90;;;;;;5058957;28;20130;-80
2022/06/14 03:15:32;;;;;;;25.85;8.20;;;8.10;99.90;;;;;;5021953;28;20087;-80
2022/06/14 03:18:00;;;;;;;15.50;6.90;;;8.10;99.90;;;;;;5034753;28;20469;-80
2022/06/14 03:20:26;;;;;;;22.98;7.90;;;8.10;99.90;;;;;;5018179;28;20065;-80
2022/06/14 03:23:03;;;;;;;20.98;7.43;;;8.10;99.90;;;;;;5018369;28;20049;-80
2022/06/14 03:25:35;;;;;;;15.27;7.05;;;8.10;99.90;;;;;;5035148;28;20427;-79
2022/06/14 03:28:38;;;;;;;14.45;7.40;;;8.10;99.90;;;;;;5051549;28;20498;-79
2022/06/14 03:31:13;;;;;;;19.90;7.45;;;8.20;99.90;;;;;;5035093;28;20087;-80
2022/06/14 03:33:51;;;;;;;15.50;7.30;;;8.20;99.90;;;;;;5050489;28;20056;-80
2022/06/14 03:36:17;;;;;;;17.25;6.95;;;8.20;99.90;;;;;;5034381;28;20533;-80
2022/06/14 03:38:57;;;;;;;12.40;6.28;;;8.30;99.90;;;;;;5050123;28;20110;-80
2022/06/14 03:41:29;;;;;;;16.37;6.97;;;8.30;99.90;;;;;;5033022;28;20049;-82
2022/06/14 03:43:59;;;;;;;22.17;7.43;;;8.30;99.90;;;;;;5051237;28;20283;-80
2022/06/14 03:46:50;;;;;;;24.60;7.28;;;8.30;99.90;;;;;;5045635;28;20144;-80
2022/06/14 03:49:23;;;;;;;14.77;6.70;;;8.40;99.90;;;;;;5036787;28;20155;-80
2022/06/14 03:52:18;;;;;;;15.40;6.78;;;8.40;99.90;;;;;;5035483;28;20080;-80
2022/06/14 03:55:01;;;;;;;26.67;7.57;;;8.40;99.90;;;;;;5052950;28;20533;-80
2022/06/14 03:57:55;;;;;;;25.65;7.80;;;8.50;99.90;;;;;;5052215;28;20045;-80
2022/06/14 04:00:47;;;;;;;24.38;7.38;;;8.50;99.90;;;;;;5052009;28;20061;-80
2022/06/14 04:03:19;;;;;;;13.45;6.80;;;8.60;99.90;;;;;;5055609;28;20123;-80
2022/06/14 04:06:12;;;;;;;17.00;6.78;;;8.60;99.90;;;;;;5071412;28;20045;-80
2022/06/14 04:09:09;;;;;;;16.17;6.45;;;8.70;99.90;;;;;;5066013;28;20045;-80
2022/06/14 04:12:10;;;;;;;15.93;6.88;;;8.70;99.90;;;;;;5052211;28;20080;-80
2022/06/14 04:14:45;;;;;;;22.83;7.82;;;8.80;99.90;;;;;;5035460;28;20067;-80
2022/06/14 04:17:22;;;;;;;16.30;7.10;;;8.80;99.90;;;;;;5052016;28;20049;-80
2022/06/14 04:20:08;;;;;;;24.27;7.57;;;8.90;99.90;;;;;;5062838;28;20117;-80
2022/06/14 04:23:09;;;;;;;17.33;7.18;;;8.90;99.90;;;;;;5071607;28;20453;-80
2022/06/14 04:25:57;;;;;;;19.10;6.72;;;8.90;99.90;;;;;;5055093;28;20049;-80
2022/06/14 04:28:43;;;;;;;17.33;5.85;;;8.90;99.90;;;;;;5051583;28;20056;-80
2022/06/14 04:31:23;;;;;;;22.00;7.20;;;9.00;99.90;;;;;;5052648;28;20057;-85
2022/06/14 04:33:52;;;;;;;18.90;6.07;;;9.00;99.90;;;;;;5051506;28;20079;-80
2022/06/14 04:36:23;;;;;;;17.52;5.35;;;9.10;99.90;;;;;;5036130;28;20429;-80
2022/06/14 04:39:15;;;;;;;;;;;9.10;99.90;;;;;;5068007;28;20065;-80
2022/06/14 04:41:57;;;;;;;22.73;6.07;;;9.20;99.90;;;;;;5069061;28;19967;-80
2022/06/14 04:44:36;;;;;;;20.52;6.32;;;9.20;99.90;;;;;;5070669;28;20453;-80
2022/06/14 04:47:14;;;;;;;14.52;5.25;;;9.30;99.90;;;;;;5055206;28;20048;-80
2022/06/14 04:49:51;;;;;;;17.90;5.85;;;9.40;99.90;;;;;;5071506;28;20098;-81
2022/06/14 04:52:38;;;;;;;17.75;5.00;;;9.40;99.90;;;;;;5071620;28;20555;-81
2022/06/14 04:55:14;;;;;;;13.80;5.07;;;9.50;99.90;;;;;;5071631;28;20052;-80
2022/06/14 04:57:45;;;;;;;17.52;4.88;;;9.60;99.90;;;;;;5072676;28;20056;-81
2022/06/14 05:00:19;;;;;;;20.02;5.05;;;9.70;99.90;;;;;;5071642;28;20048;-82
2022/06/14 05:02:55;;;;;;;20.92;5.45;;;9.80;99.90;;;;;;5054734;28;20044;-80
2022/06/14 05:05:36;;;;;;;19.83;5.07;;;9.90;99.90;;;;;;5072237;28;20076;-80
2022/06/14 05:08:15;;;;;;;11.88;4.28;;;10.00;99.90;;;;;;5071706;28;20060;-80
2022/06/14 05:11:04;;;;;;;12.93;4.47;;;10.10;99.90;;;;;;5071621;28;20119;-80
2022/06/14 05:13:44;;;;;;;14.80;4.90;;;10.20;99.90;;;;;;5072423;28;20048;-80
2022/06/14 05:16:23;;;;;;;18.02;4.65;;;10.30;99.90;;;;;;5072689;28;20489;-85
2022/06/14 05:19:42;;;;;;;15.10;4.95;;;10.40;99.90;;;;;;5071269;28;20044;-80
2022/06/14 05:22:16;;;;;;;19.33;4.30;;;10.50;99.90;;;;;;5053491;28;20405;-80
2022/06/14 05:24:42;;;;;;;11.65;3.97;;;10.60;99.90;;;;;;5053480;28;20126;-80
2022/06/14 05:27:31;;;;;;;13.88;3.58;;;10.70;99.90;;;;;;5037062;28;20107;-80
2022/06/14 05:30:00;;;;;;;15.00;4.18;;;10.90;99.90;;;;;;5053512;28;20207;-80
2022/06/14 05:32:50;;;;;;;13.77;3.92;;;11.00;99.90;;;;;;5053528;28;20172;-81
2022/06/14 05:35:15;;;;;;;16.70;4.78;;;11.00;99.90;;;;;;5053438;28;20052;-80
2022/06/14 05:38:09;;;;;;;18.25;4.93;;;11.20;99.90;;;;;;5053386;28;20414;-80
2022/06/14 05:40:43;;;;;;;14.77;4.03;;;11.30;99.90;;;;;;5053198;28;20106;-80
2022/06/14 05:43:21;;;;;;;17.30;4.43;;;11.40;99.90;;;;;;5069762;28;20425;-80
2022/06/14 05:45:53;;;;;;;17.73;4.03;;;11.50;99.90;;;;;;5053246;28;20044;-80
2022/06/14 05:48:28;;;;;;;13.55;3.70;;;11.60;99.90;;;;;;5053381;28;20106;-80
2022/06/14 05:50:56;;;;;;;14.25;3.67;;;11.70;99.90;;;;;;5053317;28;20098;-80
2022/06/14 05:53:35;;;;;;;15.25;3.58;;;11.80;99.90;;;;;;5053235;28;20049;-80
2022/06/14 05:56:10;;;;;;;12.60;3.65;;;11.90;99.90;;;;;;5047115;28;20103;-80
2022/06/14 05:58:42;;;;;;;10.57;3.00;;;12.10;99.90;;;;;;5074660;28;20041;-79
2022/06/14 06:01:31;;;;;;;9.48;2.97;;;12.20;99.90;;;;;;5074888;28;20059;-82
2022/06/14 06:04:06;;;;;;;10.48;3.47;;;12.30;99.90;;;;;;5075738;28;20048;-80
2022/06/14 06:06:45;;;;;;;10.23;2.22;;;12.30;99.90;;;;;;5074601;28;20493;-81
2022/06/14 06:09:16;;;;;;;14.02;3.60;;;12.50;99.90;;;;;;5074749;28;20401;-80
2022/06/14 06:12:08;;;;;;;13.77;3.00;;;12.60;99.90;;;;;;5074441;28;20059;-80
2022/06/14 06:14:51;;;;;;;11.85;3.60;;;12.70;99.90;;;;;;5075011;28;20066;-80
2022/06/14 06:17:25;;;;;;;10.75;3.20;;;12.80;99.90;;;;;;5075883;28;20098;-80
2022/06/14 06:20:17;;;;;;;10.90;3.50;;;13.00;99.90;;;;;;5058385;28;20084;-80
2022/06/14 06:23:12;;;;;;;10.50;3.13;;;13.10;99.90;;;;;;5076110;28;20049;-80
2022/06/14 06:25:47;;;;;;;11.18;2.88;;;13.30;99.90;;;;;;5058061;28;20052;-80
2022/06/14 06:28:23;;;;;;;10.32;2.72;;;13.30;99.90;;;;;;5076188;28;20086;-81
2022/06/14 06:31:08;;;;;;;8.00;2.42;;;13.40;99.90;;;;;;5074964;28;20052;-81
2022/06/14 06:33:37;;;;;;;10.57;2.90;;;13.60;99.90;;;;;;5074238;28;20428;-80
2022/06/14 06:36:35;;;;;;;7.00;2.55;;;13.70;99.90;;;;;;5074910;28;20052;-79
2022/06/14 06:39:13;;;;;;;14.52;2.95;;;13.90;99.90;;;;;;5074504;28;20405;-79
2022/06/14 06:41:49;;;;;;;12.15;2.10;;;14.00;99.90;;;;;;5057965;28;20068;-80
2022/06/14 06:44:57;;;;;;;10.00;2.30;;;14.20;99.90;;;;;;5074600;28;20456;-80
2022/06/14 06:47:57;;;;;;;9.60;2.38;;;14.80;99.90;;;;;;5072838;28;20228;-80
2022/06/14 06:50:26;;;;;;;7.05;2.00;;;15.60;99.90;;;;;;4996778;28;20411;-80
2022/06/14 06:53:12;;;;;;;8.27;2.03;;;16.50;99.90;;;;;;5012929;28;20057;-80
2022/06/14 06:55:59;;;;;;;8.65;2.13;;;17.20;99.90;;;;;;5012882;28;20476;-80
2022/06/14 06:58:28;;;;;;;14.70;2.25;;;17.80;99.90;;;;;;5012697;28;20093;-80
2022/06/14 07:00:57;;;;;;;6.72;1.90;;;18.30;99.90;;;;;;5012883;28;20065;-80
2022/06/14 07:04:02;;;;;;;8.38;2.05;;;18.90;99.90;;;;;;5012751;28;20112;-80
2022/06/14 07:06:42;;;;;;;9.25;2.10;;;19.50;99.90;;;;;;4996524;28;20058;-80
2022/06/14 07:09:37;;;;;;;8.38;2.13;;;19.90;99.90;;;;;;5011873;28;20075;-81
2022/06/14 07:12:07;;;;;;;8.45;1.90;;;20.10;99.90;;;;;;4980355;28;20074;-80
2022/06/14 07:14:44;;;;;;;9.70;2.10;;;20.50;99.90;;;;;;5012419;28;20061;-80
2022/06/14 07:17:39;;;;;;;10.35;2.28;;;20.90;99.90;;;;;;5012351;28;20054;-80
2022/06/14 07:20:23;;;;;;;7.68;2.10;;;21.10;99.80;;;;;;5012603;28;20061;-80
2022/06/14 07:23:15;;;;;;;6.47;1.60;;;21.50;99.90;;;;;;4997157;28;20060;-80
2022/06/14 07:25:51;;;;;;;8.60;1.63;;;22.20;96.80;;;;;;4973550;28;20109;-81
2022/06/14 07:28:42;;;;;;;4.97;1.48;;;22.70;96.50;;;;;;5028966;28;20054;-81
2022/06/14 07:31:16;;;;;;;10.05;1.80;;;22.20;91.10;;;;;;5031484;28;20053;-80
2022/06/14 07:33:42;;;;;;;5.93;1.73;;;21.50;86.30;;;;;;5015662;28;20106;-80
2022/06/14 07:36:40;;;;;;;7.90;1.63;;;20.50;97.60;;;;;;4999241;28;20144;-81
2022/06/14 07:39:26;;;;;;;6.88;1.80;;;20.10;98.20;;;;;;4992613;28;20054;-80
2022/06/14 07:42:15;;;;;;;6.68;1.90;;;20.20;98.00;;;;;;4975978;28;20097;-80
2022/06/14 07:44:40;;;;;;;9.80;2.00;;;20.20;94.60;;;;;;4953682;28;20063;-81
2022/06/14 07:47:13;;;;;;;8.85;2.00;;;20.80;93.90;;;;;;4953383;28;20113;-80
2022/06/14 07:49:58;;;;;;;6.15;1.73;;;21.50;89.40;;;;;;4937628;29;20058;-81
2022/06/14 07:52:29;;;;;;;6.40;1.83;;;21.80;78.60;;;;;;4953353;29;20039;-81
2022/06/14 07:55:12;;;;;;;8.15;1.80;;;22.00;81.30;;;;;;4953302;29;20051;-81
2022/06/14 07:57:42;;;;;;;4.90;1.77;;;22.60;70.40;;;;;;4937432;29;20063;-81
2022/06/14 08:03:21;;;;;;;6.63;1.58;;;23.60;64.50;;;;;;4937604;29;20098;-81
2022/06/14 08:05:49;;;;;;;8.05;1.83;;;23.90;66.00;;;;;;4937140;29;20051;-84
2022/06/14 08:08:20;;;;;;;7.18;1.67;;;24.30;63.70;;;;;;4953174;29;20051;-82
2022/06/14 08:10:49;;;;;;;6.25;1.50;;;24.70;60.50;;;;;;4953035;29;20083;-81
2022/06/14 08:13:28;;;;;;;5.37;1.27;;;25.00;58.90;;;;;;4953079;29;20098;-81
2022/06/14 08:15:58;;;;;;;7.28;1.55;;;24.70;57.00;;;;;;4969039;28;20447;-81
2022/06/14 08:18:57;;;;;;;4.25;1.10;;;23.40;60.20;;;;;;4977222;28;20531;-87
2022/06/14 08:21:52;;;;;;;3.33;1.38;;;21.90;61.10;;;;;;5020366;28;20433;-81
2022/06/14 08:24:22;;;;;;;6.60;1.30;;;20.90;68.50;;;;;;5072025;28;20044;-81
2022/06/14 08:26:54;;;;;;;5.70;1.38;;;21.00;77.40;;;;;;5072921;28;20043;-81
2022/06/14 08:29:37;;;;;;;6.18;1.63;;;22.00;67.90;;;;;;5073430;28;20044;-81
2022/06/14 08:32:12;;;;;;;5.53;1.55;;;22.90;62.10;;;;;;5073162;28;20055;-81
2022/06/14 08:34:54;;;;;;;6.03;1.48;;;24.00;61.60;;;;;;5073065;28;20174;-81
2022/06/14 08:37:29;;;;;;;14.20;1.70;;;25.40;58.20;;;;;;5071242;28;20090;-81
2022/06/14 08:40:10;;;;;;;6.47;1.50;;;26.50;54.70;;;;;;5071787;28;20067;-82
2022/06/14 08:42:53;;;;;;;7.20;1.13;;;26.20;52.80;;;;;;5072919;28;20052;-82
2022/06/14 08:45:33;;;;;;;5.63;1.30;;;24.90;53.00;;;;;;5071619;28;20091;-81
2022/06/14 08:48:18;;;;;;;;;;;23.30;56.60;;;;;;5071865;28;20523;-81
2022/06/14 08:51:10;;;;;;;7.63;1.48;;;21.90;59.40;;;;;;5071816;28;19936;-81
2022/06/14 08:53:41;;;;;;;5.05;1.50;;;20.60;67.90;;;;;;5072742;28;20049;-81
2022/06/14 08:56:35;;;;;;;5.28;1.30;;;19.80;73.50;;;;;;5071560;28;20139;-82
2022/06/14 08:59:03;;;;;;;7.70;1.50;;;19.40;84.00;;;;;;5071722;28;20051;-81
2022/06/14 09:02:00;;;;;;;5.20;1.40;;;20.80;83.30;;;;;;5071231;28;20057;-81
2022/06/14 09:05:00;;;;;;;3.72;1.20;;;22.70;64.50;;;;;;5072512;28;20166;-81
2022/06/14 09:08:02;;;;;;;8.93;1.60;;;24.20;56.70;;;;;;5071735;28;20158;-81
2022/06/14 09:11:04;;;;;;;3.78;1.60;;;24.40;56.40;;;;;;5072592;28;20048;-81
2022/06/14 09:14:00;;;;;;;6.20;1.13;;;23.60;55.30;;;;;;5071624;28;20048;-87
2022/06/14 09:16:29;;;;;;;4.68;1.20;;;22.50;59.90;;;;;;5071671;28;20044;-81
2022/06/14 09:18:54;;;;;;;6.38;1.33;;;21.60;65.30;;;;;;5071256;28;20053;-81
2022/06/14 09:21:51;;;;;;;6.13;1.30;;;20.90;69.10;;;;;;5072359;28;20135;-82
2022/06/14 09:24:47;;;;;;;5.25;1.40;;;20.40;71.80;;;;;;5071231;28;20052;-80
2022/06/14 09:27:21;;;;;;;5.70;1.13;;;19.90;74.30;;;;;;5072901;28;20055;-81
2022/06/14 09:29:56;;;;;;;4.65;1.15;;;19.50;82.80;;;;;;5072632;28;20460;-81
2022/06/14 09:33:09;;;;;;;5.28;1.30;;;19.20;81.50;;;;;;5076538;28;20097;-81
2022/06/14 09:35:42;;;;;;;;;;;19.50;81.90;;;;;;5076976;28;20053;-81
2022/06/14 09:38:45;;;;;;;4.90;1.30;;;21.40;70.00;;;;;;5075046;28;19946;-81
2022/06/14 09:41:35;;;;;;;5.35;1.20;;;23.70;61.00;;;;;;5075989;28;20140;-84
2022/06/14 09:44:20;;;;;;;5.45;1.10;;;25.70;57.00;;;;;;5075334;28;20044;-81
2022/06/14 09:47:08;;;;;;;2.78;0.90;;;27.50;51.90;;;;;;5075850;28;20047;-81
2022/06/14 09:49:57;;;;;;;8.35;1.50;;;28.50;47.70;;;;;;5075333;28;20056;-83
2022/06/14 09:52:44;;;;;;;3.97;1.07;;;27.70;47.90;;;;;;5076299;28;20428;-81
2022/06/14 09:55:19;;;;;;;6.63;1.27;;;27.10;48.80;;;;;;5075112;28;20041;-82
2022/06/14 09:58:06;;;;;;;5.97;1.63;;;25.70;49.70;;;;;;5076640;28;20048;-81
2022/06/14 10:00:48;;;;;;;3.92;1.20;;;24.10;50.80;;;;;;5079455;28;20044;-82
2022/06/14 10:03:55;;;;;;;4.28;1.27;;;22.80;56.00;;;;;;5077770;28;20051;-82
2022/06/14 10:06:54;;;;;;;4.93;1.20;;;21.80;61.50;;;;;;5059541;28;20063;-81
2022/06/14 10:09:41;;;;;;;4.50;1.50;;;21.10;66.50;;;;;;5057645;28;20501;-81
2022/06/14 10:12:27;;;;;;;6.13;1.35;;;20.70;70.70;;;;;;5073818;28;20119;-81
2022/06/14 10:15:16;;;;;;;4.85;1.38;;;20.60;71.80;;;;;;4997968;28;20096;-85
2022/06/14 10:18:00;;;;;;;4.53;1.10;;;22.60;70.50;;;;;;4998283;28;20158;-81
2022/06/14 10:20:29;;;;;;;3.28;1.20;;;24.80;56.40;;;;;;5013603;28;20050;-81
2022/06/14 10:23:39;;;;;;;4.20;1.15;;;26.90;50.80;;;;;;5013855;28;20053;-81
2022/06/14 10:29:19;;;;;;;3.40;1.10;;;29.10;46.00;;;;;;4954817;29;20054;-82
2022/06/14 10:32:28;;;;;;;4.30;1.10;;;28.70;46.40;;;;;;4923419;29;20130;-81
2022/06/14 10:35:05;;;;;;;6.63;1.40;;;28.50;45.10;;;;;;4897682;29;20056;-82
2022/06/14 10:38:04;;;;;;;5.10;1.42;;;27.50;45.40;;;;;;4882355;29;20056;-82
2022/06/14 10:40:45;;;;;;;4.03;1.20;;;26.30;48.00;;;;;;4897613;29;20064;-86
2022/06/14 10:43:48;;;;;;;3.03;1.02;;;25.40;49.50;;;;;;4870866;29;20512;-83
2022/06/14 10:46:20;;;;;;;5.10;1.40;;;24.70;49.70;;;;;;4848164;29;20053;-82
2022/06/14 10:48:57;;;;;;;5.43;1.00;;;24.20;53.80;;;;;;4863338;29;20064;-82
2022/06/14 10:51:44;;;;;;;3.50;1.30;;;23.70;55.30;;;;;;4872574;29;20458;-82
2022/06/14 10:54:21;;;;;;;4.63;1.40;;;23.30;58.30;;;;;;4916480;29;20048;-82
2022/06/14 10:57:02;;;;;;;4.07;1.10;;;23.00;58.90;;;;;;4916323;29;20103;-82
2022/06/14 10:59:46;;;;;;;;;;;22.80;62.10;;;;;;4900656;29;20060;-81
2022/06/14 11:02:25;;;;;;;4.25;1.40;;;22.70;59.50;;;;;;4916374;28;19922;-82
2022/06/14 11:05:07;;;;;;;4.82;1.00;;;22.70;57.80;;;;;;4993237;28;20069;-82
2022/06/14 11:08:02;;;;;;;4.47;1.25;;;23.30;61.90;;;;;;4977465;28;20145;-82
2022/06/14 11:10:55;;;;;;;8.85;1.80;;;24.50;56.70;;;;;;4977020;28;20082;-87
2022/06/14 11:13:47;;;;;;;5.25;1.40;;;24.90;55.00;;;;;;5073568;28;20041;-82
2022/06/14 11:16:36;;;;;;;5.00;1.73;;;25.60;55.30;;;;;;5074426;28;20048;-82
2022/06/14 11:19:49;;;;;;;5.88;1.27;;;26.80;51.20;;;;;;5074177;28;20036;-89
2022/06/14 11:22:41;;;;;;;4.32;1.30;;;28.20;48.60;;;;;;5072442;28;20091;-82
2022/06/14 11:25:18;;;;;;;3.60;1.00;;;29.40;46.90;;;;;;5055648;28;20143;-82
2022/06/14 11:28:08;;;;;;;3.42;1.20;;;29.40;45.40;;;;;;5071836;28;20052;-82
2022/06/14 11:30:56;;;;;;;4.55;0.93;;;28.80;44.00;;;;;;5055568;28;20047;-82
2022/06/14 11:34:05;;;;;;;5.03;1.30;;;27.60;45.50;;;;;;5055250;28;20063;-82
2022/06/14 11:37:01;;;;;;;3.70;1.33;;;26.10;48.40;;;;;;5012494;28;20531;-81
2022/06/14 11:39:42;;;;;;;2.88;1.00;;;24.90;50.70;;;;;;5012128;28;20305;-81
2022/06/14 11:42:36;;;;;;;4.22;1.08;;;24.10;52.40;;;;;;4995801;28;20112;-81
2022/06/14 11:45:26;;;;;;;4.13;1.20;;;23.60;54.00;;;;;;4937664;29;20059;-81
2022/06/14 11:47:56;;;;;;;6.57;1.30;;;23.20;55.50;;;;;;4937770;29;20090;-81
2022/06/14 11:50:46;;;;;;;5.57;1.10;;;22.80;55.30;;;;;;4937726;29;20319;-81
2022/06/14 11:53:23;;;;;;;;;;;22.60;55.40;;;;;;4953495;28;20070;-81
2022/06/14 11:55:59;;;;;;;2.78;1.13;;;22.40;57.10;;;;;;4953721;29;19922;-81
2022/06/14 11:59:07;;;;;;;5.88;1.00;;;22.60;58.10;;;;;;4953060;29;20118;-81
2022/06/14 12:01:52;;;;;;;3.75;1.00;;;24.30;54.10;;;;;;4937444;29;20183;-81
2022/06/14 12:04:32;;;;;;;4.90;1.10;;;25.00;53.20;;;;;;4953257;28;20519;-81
2022/06/14 12:07:12;;;;;;;4.03;1.20;;;25.90;49.70;;;;;;4953514;29;20078;-81
2022/06/14 12:10:07;;;;;;;4.10;1.20;;;25.40;49.60;;;;;;4921466;29;20147;-82
2022/06/14 12:13:01;;;;;;;3.05;1.00;;;24.70;50.60;;;;;;4966307;28;20435;-81
2022/06/14 12:15:55;;;;;;;3.40;1.02;;;23.90;53.40;;;;;;4975760;28;20480;-81
2022/06/14 12:18:24;;;;;;;4.55;1.25;;;23.50;54.90;;;;;;4991801;28;20377;-81
2022/06/14 12:21:17;;;;;;;3.75;1.05;;;23.10;55.90;;;;;;4994346;28;20555;-81
2022/06/14 12:23:51;;;;;;;3.53;1.00;;;22.80;55.50;;;;;;5073241;28;20048;-81
2022/06/14 12:26:37;;;;;;;3.67;1.00;;;22.40;56.40;;;;;;5071763;28;20040;-81
2022/06/14 12:29:27;;;;;;;5.30;1.30;;;22.20;55.20;;;;;;5055144;28;20056;-81
2022/06/14 12:32:04;;;;;;;2.15;0.77;;;22.10;56.20;;;;;;5073359;28;20123;-81
2022/06/14 12:34:31;;;;;;;4.53;1.30;;;22.20;58.50;;;;;;5072036;28;20505;-81
2022/06/14 12:37:28;;;;;;;2.50;1.08;;;23.40;56.20;;;;;;5055131;28;20205;-81
2022/06/14 12:40:07;;;;;;;3.28;1.02;;;25.60;53.30;;;;;;5072804;28;20144;-82
2022/06/14 12:43:00;;;;;;;3.50;1.00;;;27.40;49.20;;;;;;5072239;28;20052;-82
2022/06/14 12:45:41;;;;;;;3.75;1.00;;;28.50;46.40;;;;;;5073003;28;20040;-81
2022/06/14 12:48:31;;;;;;;3.83;1.08;;;29.60;44.60;;;;;;5071992;28;20106;-83
2022/06/14 12:51:13;;;;;;;3.65;1.08;;;30.60;44.30;;;;;;5054952;28;20056;-82
2022/06/14 12:53:44;;;;;;;3.03;0.98;;;30.60;41.70;;;;;;5071739;28;20044;-81
2022/06/14 12:56:22;;;;;;;5.60;1.42;;;30.00;41.10;;;;;;5073024;28;20048;-82
2022/06/14 12:59:11;;;;;;;3.92;1.25;;;29.50;41.80;;;;;;5073243;28;20047;-81
2022/06/14 13:01:56;;;;;;;2.40;1.05;;;29.80;42.70;;;;;;5054955;28;20048;-88
2022/06/14 13:04:30;;;;;;;6.95;1.20;;;30.50;40.60;;;;;;5071512;28;20044;-82
2022/06/14 13:07:22;;;;;;;4.85;1.20;;;31.00;41.10;;;;;;5072051;28;20045;-82
2022/06/14 13:09:50;;;;;;;2.15;1.08;;;31.50;39.20;;;;;;5072438;28;20036;-82
2022/06/14 13:12:39;;;;;;;2.55;1.13;;;30.30;40.60;;;;;;5072403;28;20420;-85
2022/06/14 13:15:30;;;;;;;2.97;1.20;;;29.80;41.10;;;;;;5071916;28;20059;-82
2022/06/14 13:18:07;;;;;;;3.15;1.20;;;30.20;39.50;;;;;;5071430;28;20559;-81
2022/06/14 13:20:55;;;;;;;2.70;1.30;;;29.60;41.50;;;;;;5071807;28;20056;-82
2022/06/14 13:23:54;;;;;;;2.20;0.85;;;29.50;41.10;;;;;;5072605;28;20044;-83
2022/06/14 13:26:47;;;;;;;4.22;1.55;;;29.80;41.70;;;;;;5071446;28;20044;-81
2022/06/14 13:29:34;;;;;;;2.70;1.20;;;30.90;40.30;;;;;;5072681;28;20049;-83
2022/06/14 13:32:07;;;;;;;3.80;1.38;;;32.20;40.30;;;;;;5071566;28;20498;-80
2022/06/14 13:34:47;;;;;;;3.80;1.30;;;33.10;38.50;;;;;;5073106;28;20493;-82
2022/06/14 13:37:34;;;;;;;2.47;1.17;;;33.30;36.90;;;;;;5054830;28;20095;-82
2022/06/14 13:40:38;;;;;;;4.93;1.20;;;32.10;37.40;;;;;;5072466;28;20548;-82
2022/06/14 13:43:23;;;;;;;3.95;1.05;;;30.50;39.90;;;;;;5036902;28;20448;-82
2022/06/14 13:45:57;;;;;;;2.58;1.15;;;29.70;39.50;;;;;;5054253;28;20563;-81
2022/06/14 13:48:41;;;;;;;5.93;1.33;;;28.70;40.80;;;;;;5054353;28;20079;-82
2022/06/14 13:51:21;;;;;;;4.38;1.10;;;27.70;42.80;;;;;;5054268;28;20095;-82
2022/06/14 13:54:11;;;;;;;5.05;1.20;;;26.60;44.80;;;;;;5053736;28;20073;-82
2022/06/14 13:56:44;;;;;;;3.80;1.27;;;25.70;46.70;;;;;;5069970;28;20075;-82
2022/06/14 13:59:13;;;;;;;2.25;0.90;;;25.00;46.60;;;;;;5036960;28;20097;-82
2022/06/14 14:02:02;;;;;;;3.20;1.00;;;24.60;48.40;;;;;;5069908;28;20052;-82
2022/06/14 14:04:47;;;;;;;4.57;0.93;;;24.30;50.50;;;;;;5053440;28;20051;-81
2022/06/14 14:07:22;;;;;;;4.50;1.15;;;23.90;50.10;;;;;;5069697;28;20106;-82
2022/06/14 14:09:59;;;;;;;4.75;1.10;;;23.70;51.20;;;;;;5053497;28;20135;-84
2022/06/14 14:12:36;;;;;;;4.38;1.20;;;23.50;50.80;;;;;;5053161;28;20064;-81